Granite Quarry, North Carolina
Current Conditions -  °F | °C
As of 11:35 AM on Friday 31 Oct 2014 (Local Time) from KRUQ Reporting Station
Overcast Overcast  
Wind Chill: 53°   Ceiling: 2700
Heat Index: 53°   Visibility: 10mi
Dew Point: 40°   Wind: 0mph
Humidity: 62%   Direction: NA
Pressure: 29.94"   Gusts: NA
Location:  35.61°N, 80.45°W
Report Text: KRUQ 311535Z AUTO 00000KT 10SM OVC027 11/04 A2994 RMK AO2 T01140044
Loading
Personal Weather Stations






























Interactive Weather Map
Tropical Storm Tracking
New forecast layout! Learn more

10-Day Weather Forecast

Advertisements
Track Severe Weather on mobile